sensor_id;sensor_type;location;lat;lon;timestamp;temperature;humidity
7958;DHT22;4024;52.172;5.378;2023-10-31T00:00:22;12.80;99.90
7958;DHT22;4024;52.172;5.378;2023-10-31T00:02:48;12.70;99.90
7958;DHT22;4024;52.172;5.378;2023-10-31T00:05:13;12.70;99.90
7958;DHT22;4024;52.172;5.378;2023-10-31T00:07:39;12.70;99.90
7958;DHT22;4024;52.172;5.378;2023-10-31T00:10:06;12.70;99.90
7958;DHT22;4024;52.172;5.378;2023-10-31T00:12:35;12.70;99.90
7958;DHT22;4024;52.172;5.378;2023-10-31T00:15:00;12.70;99.90
7958;DHT22;4024;52.172;5.378;2023-10-31T00:17:26;12.70;99.90
7958;DHT22;4024;52.172;5.378;2023-10-31T00:19:51;12.70;99.90
7958;DHT22;4024;52.172;5.378;2023-10-31T00:22:19;12.70;99.90
7958;DHT22;4024;52.172;5.378;2023-10-31T00:24:45;12.70;99.90
7958;DHT22;4024;52.172;5.378;2023-10-31T00:27:11;12.70;99.90
7958;DHT22;4024;52.172;5.378;2023-10-31T00:29:37;12.70;99.90
7958;DHT22;4024;52.172;5.378;2023-10-31T00:32:03;12.80;99.90
7958;DHT22;4024;52.172;5.378;2023-10-31T00:34:28;12.70;99.90
7958;DHT22;4024;52.172;5.378;2023-10-31T00:36:54;12.70;99.90
7958;DHT22;4024;52.172;5.378;2023-10-31T00:39:20;12.80;99.90
7958;DHT22;4024;52.172;5.378;2023-10-31T00:41:47;12.70;99.90
7958;DHT22;4024;52.172;5.378;2023-10-31T00:44:13;12.80;99.90
7958;DHT22;4024;52.172;5.378;2023-10-31T00:46:39;12.80;99.90
7958;DHT22;4024;52.172;5.378;2023-10-31T00:49:04;12.80;99.90
7958;DHT22;4024;52.172;5.378;2023-10-31T00:51:30;12.80;99.90
7958;DHT22;4024;52.172;5.378;2023-10-31T00:53:56;12.80;99.90
7958;DHT22;4024;52.172;5.378;2023-10-31T00:56:21;12.80;99.90
7958;DHT22;4024;52.172;5.378;2023-10-31T00:58:47;12.80;99.90
7958;DHT22;4024;52.172;5.378;2023-10-31T01:01:13;12.80;99.90
7958;DHT22;4024;52.172;5.378;2023-10-31T01:03:39;12.80;99.90
7958;DHT22;4024;52.172;5.378;2023-10-31T01:06:05;12.80;99.90
7958;DHT22;4024;52.172;5.378;2023-10-31T01:08:31;12.80;99.90
7958;DHT22;4024;52.172;5.378;2023-10-31T01:10:56;12.80;99.90
7958;DHT22;4024;52.172;5.378;2023-10-31T01:13:22;12.90;99.90
7958;DHT22;4024;52.172;5.378;2023-10-31T01:15:47;12.80;99.90
7958;DHT22;4024;52.172;5.378;2023-10-31T01:18:13;12.90;99.90
7958;DHT22;4024;52.172;5.378;2023-10-31T01:20:39;12.80;99.90
7958;DHT22;4024;52.172;5.378;2023-10-31T01:23:05;12.80;99.90
7958;DHT22;4024;52.172;5.378;2023-10-31T01:25:30;12.80;99.90
7958;DHT22;4024;52.172;5.378;2023-10-31T01:27:56;12.80;99.90
7958;DHT22;4024;52.172;5.378;2023-10-31T01:30:21;12.80;99.90
7958;DHT22;4024;52.172;5.378;2023-10-31T01:32:47;12.80;99.90
7958;DHT22;4024;52.172;5.378;2023-10-31T01:35:13;12.80;99.90
7958;DHT22;4024;52.172;5.378;2023-10-31T01:37:38;12.80;99.90
7958;DHT22;4024;52.172;5.378;2023-10-31T01:40:05;12.80;99.90
7958;DHT22;4024;52.172;5.378;2023-10-31T01:42:32;12.80;99.90
7958;DHT22;4024;52.172;5.378;2023-10-31T01:44:58;12.80;99.90
7958;DHT22;4024;52.172;5.378;2023-10-31T01:47:24;12.80;99.90
7958;DHT22;4024;52.172;5.378;2023-10-31T01:49:50;12.80;99.90
7958;DHT22;4024;52.172;5.378;2023-10-31T01:52:16;12.80;99.90
7958;DHT22;4024;52.172;5.378;2023-10-31T01:54:44;12.80;99.90
7958;DHT22;4024;52.172;5.378;2023-10-31T01:57:10;12.80;99.90
7958;DHT22;4024;52.172;5.378;2023-10-31T01:59:36;12.80;99.90
7958;DHT22;4024;52.172;5.378;2023-10-31T02:02:03;12.80;99.90
7958;DHT22;4024;52.172;5.378;2023-10-31T02:04:29;12.90;99.90
7958;DHT22;4024;52.172;5.378;2023-10-31T02:06:55;12.90;99.90
7958;DHT22;4024;52.172;5.378;2023-10-31T02:09:20;12.80;99.90
7958;DHT22;4024;52.172;5.378;2023-10-31T02:11:50;12.90;99.90
7958;DHT22;4024;52.172;5.378;2023-10-31T02:14:15;12.90;99.90
7958;DHT22;4024;52.172;5.378;2023-10-31T02:16:41;12.90;99.90
7958;DHT22;4024;52.172;5.378;2023-10-31T02:19:07;13.00;99.90
7958;DHT22;4024;52.172;5.378;2023-10-31T02:21:32;13.00;99.90
7958;DHT22;4024;52.172;5.378;2023-10-31T02:23:59;13.00;99.90
7958;DHT22;4024;52.172;5.378;2023-10-31T02:26:29;13.00;99.90
7958;DHT22;4024;52.172;5.378;2023-10-31T02:28:55;13.00;99.90
7958;DHT22;4024;52.172;5.378;2023-10-31T02:31:21;13.00;99.90
7958;DHT22;4024;52.172;5.378;2023-10-31T02:33:46;13.00;99.90
7958;DHT22;4024;52.172;5.378;2023-10-31T02:36:12;13.00;99.90
7958;DHT22;4024;52.172;5.378;2023-10-31T02:38:38;12.90;99.90
7958;DHT22;4024;52.172;5.378;2023-10-31T02:41:03;13.00;99.90
7958;DHT22;4024;52.172;5.378;2023-10-31T02:43:29;13.00;99.90
7958;DHT22;4024;52.172;5.378;2023-10-31T02:45:54;13.00;99.90
7958;DHT22;4024;52.172;5.378;2023-10-31T02:48:20;13.00;99.90
7958;DHT22;4024;52.172;5.378;2023-10-31T02:50:46;12.90;99.90
7958;DHT22;4024;52.172;5.378;2023-10-31T02:53:11;13.00;99.90
7958;DHT22;4024;52.172;5.378;2023-10-31T02:55:37;13.00;99.90
7958;DHT22;4024;52.172;5.378;2023-10-31T02:58:02;13.00;99.90
7958;DHT22;4024;52.172;5.378;2023-10-31T03:00:28;13.00;99.90
7958;DHT22;4024;52.172;5.378;2023-10-31T03:02:54;13.00;99.90
7958;DHT22;4024;52.172;5.378;2023-10-31T03:05:19;13.00;99.90
7958;DHT22;4024;52.172;5.378;2023-10-31T03:07:45;13.00;99.90
7958;DHT22;4024;52.172;5.378;2023-10-31T03:10:11;13.00;99.90
7958;DHT22;4024;52.172;5.378;2023-10-31T03:12:37;13.00;99.90
7958;DHT22;4024;52.172;5.378;2023-10-31T03:15:03;12.90;99.90
7958;DHT22;4024;52.172;5.378;2023-10-31T03:17:32;12.90;99.90
7958;DHT22;4024;52.172;5.378;2023-10-31T03:19:57;12.90;99.90
7958;DHT22;4024;52.172;5.378;2023-10-31T03:22:23;12.90;99.90
7958;DHT22;4024;52.172;5.378;2023-10-31T03:24:49;12.90;99.90
7958;DHT22;4024;52.172;5.378;2023-10-31T03:27:16;12.90;99.90
7958;DHT22;4024;52.172;5.378;2023-10-31T03:29:41;12.90;99.90
7958;DHT22;4024;52.172;5.378;2023-10-31T03:32:07;12.90;99.90
7958;DHT22;4024;52.172;5.378;2023-10-31T03:34:33;12.90;99.90
7958;DHT22;4024;52.172;5.378;2023-10-31T03:36:58;12.90;99.90
7958;DHT22;4024;52.172;5.378;2023-10-31T03:39:24;12.90;99.90
7958;DHT22;4024;52.172;5.378;2023-10-31T03:41:49;12.90;99.90
7958;DHT22;4024;52.172;5.378;2023-10-31T03:44:15;12.90;99.90
7958;DHT22;4024;52.172;5.378;2023-10-31T03:46:41;12.90;99.90
7958;DHT22;4024;52.172;5.378;2023-10-31T03:49:06;13.00;99.90
7958;DHT22;4024;52.172;5.378;2023-10-31T03:51:33;13.00;99.90
7958;DHT22;4024;52.172;5.378;2023-10-31T03:54:00;12.90;99.90
7958;DHT22;4024;52.172;5.378;2023-10-31T03:56:25;13.00;99.90
7958;DHT22;4024;52.172;5.378;2023-10-31T03:58:51;13.00;99.90
7958;DHT22;4024;52.172;5.378;2023-10-31T04:01:16;13.00;99.90
7958;DHT22;4024;52.172;5.378;2023-10-31T04:03:43;13.00;99.90
7958;DHT22;4024;52.172;5.378;2023-10-31T04:06:09;12.90;99.90
7958;DHT22;4024;52.172;5.378;2023-10-31T04:08:34;13.00;99.90
7958;DHT22;4024;52.172;5.378;2023-10-31T04:11:00;13.00;99.90
7958;DHT22;4024;52.172;5.378;2023-10-31T04:13:25;13.00;99.90
7958;DHT22;4024;52.172;5.378;2023-10-31T04:15:51;12.90;99.90
7958;DHT22;4024;52.172;5.378;2023-10-31T04:18:18;13.00;99.90
7958;DHT22;4024;52.172;5.378;2023-10-31T04:20:44;13.00;99.90
7958;DHT22;4024;52.172;5.378;2023-10-31T04:23:09;12.90;99.90
7958;DHT22;4024;52.172;5.378;2023-10-31T04:25:37;13.00;99.90
7958;DHT22;4024;52.172;5.378;2023-10-31T04:28:03;12.90;99.90
7958;DHT22;4024;52.172;5.378;2023-10-31T04:30:29;12.90;99.90
7958;DHT22;4024;52.172;5.378;2023-10-31T04:32:54;12.90;99.90
7958;DHT22;4024;52.172;5.378;2023-10-31T04:35:20;12.90;99.90
7958;DHT22;4024;52.172;5.378;2023-10-31T04:37:45;13.00;99.90
7958;DHT22;4024;52.172;5.378;2023-10-31T04:40:12;12.90;99.90
7958;DHT22;4024;52.172;5.378;2023-10-31T04:42:39;12.90;99.90
7958;DHT22;4024;52.172;5.378;2023-10-31T04:45:08;12.90;99.90
7958;DHT22;4024;52.172;5.378;2023-10-31T04:47:34;12.90;99.90
7958;DHT22;4024;52.172;5.378;2023-10-31T04:49:59;12.90;99.90
7958;DHT22;4024;52.172;5.378;2023-10-31T04:52:25;12.90;99.90
7958;DHT22;4024;52.172;5.378;2023-10-31T04:54:51;12.90;99.90
7958;DHT22;4024;52.172;5.378;2023-10-31T04:57:17;12.90;99.90
7958;DHT22;4024;52.172;5.378;2023-10-31T04:59:43;12.90;99.90
7958;DHT22;4024;52.172;5.378;2023-10-31T05:02:09;12.90;99.90
7958;DHT22;4024;52.172;5.378;2023-10-31T05:04:38;12.80;99.90
7958;DHT22;4024;52.172;5.378;2023-10-31T05:07:04;12.80;99.90
7958;DHT22;4024;52.172;5.378;2023-10-31T05:09:31;12.80;99.90
7958;DHT22;4024;52.172;5.378;2023-10-31T05:11:57;12.80;99.90
7958;DHT22;4024;52.172;5.378;2023-10-31T05:14:22;12.80;99.90
7958;DHT22;4024;52.172;5.378;2023-10-31T05:16:48;12.80;99.90
7958;DHT22;4024;52.172;5.378;2023-10-31T05:19:13;12.80;99.90
7958;DHT22;4024;52.172;5.378;2023-10-31T05:21:39;12.80;99.90
7958;DHT22;4024;52.172;5.378;2023-10-31T05:24:05;12.80;99.90
7958;DHT22;4024;52.172;5.378;2023-10-31T05:26:31;12.80;99.90
7958;DHT22;4024;52.172;5.378;2023-10-31T05:28:57;12.70;99.90
7958;DHT22;4024;52.172;5.378;2023-10-31T05:31:24;12.70;99.90
7958;DHT22;4024;52.172;5.378;2023-10-31T05:33:50;12.70;99.90
7958;DHT22;4024;52.172;5.378;2023-10-31T05:36:19;12.70;99.90
7958;DHT22;4024;52.172;5.378;2023-10-31T05:38:45;12.70;99.90
7958;DHT22;4024;52.172;5.378;2023-10-31T05:41:10;12.70;99.90
7958;DHT22;4024;52.172;5.378;2023-10-31T05:43:36;12.70;99.90
7958;DHT22;4024;52.172;5.378;2023-10-31T05:46:01;12.70;99.90
7958;DHT22;4024;52.172;5.378;2023-10-31T05:48:27;12.60;99.90
7958;DHT22;4024;52.172;5.378;2023-10-31T05:50:52;12.60;99.90
7958;DHT22;4024;52.172;5.378;2023-10-31T05:53:18;12.60;99.90
7958;DHT22;4024;52.172;5.378;2023-10-31T05:55:43;12.60;99.90
7958;DHT22;4024;52.172;5.378;2023-10-31T05:58:09;12.60;99.90
7958;DHT22;4024;52.172;5.378;2023-10-31T06:00:34;12.60;99.90
7958;DHT22;4024;52.172;5.378;2023-10-31T06:03:01;12.60;99.90
7958;DHT22;4024;52.172;5.378;2023-10-31T06:05:26;12.50;99.90
7958;DHT22;4024;52.172;5.378;2023-10-31T06:07:52;12.50;99.90
7958;DHT22;4024;52.172;5.378;2023-10-31T06:10:17;12.50;99.90
7958;DHT22;4024;52.172;5.378;2023-10-31T06:12:43;12.50;99.90
7958;DHT22;4024;52.172;5.378;2023-10-31T06:15:09;12.50;99.90
7958;DHT22;4024;52.172;5.378;2023-10-31T06:17:34;12.50;99.90
7958;DHT22;4024;52.172;5.378;2023-10-31T06:20:01;12.50;99.90
7958;DHT22;4024;52.172;5.378;2023-10-31T06:22:27;12.50;99.90
7958;DHT22;4024;52.172;5.378;2023-10-31T06:24:53;12.50;99.90
7958;DHT22;4024;52.172;5.378;2023-10-31T06:27:20;12.50;99.90
7958;DHT22;4024;52.172;5.378;2023-10-31T06:29:45;12.50;99.90
7958;DHT22;4024;52.172;5.378;2023-10-31T06:32:11;12.50;99.90
7958;DHT22;4024;52.172;5.378;2023-10-31T06:34:37;12.50;99.90
7958;DHT22;4024;52.172;5.378;2023-10-31T06:37:02;12.50;99.90
7958;DHT22;4024;52.172;5.378;2023-10-31T06:39:31;12.50;99.90
7958;DHT22;4024;52.172;5.378;2023-10-31T06:41:58;12.50;99.90
7958;DHT22;4024;52.172;5.378;2023-10-31T06:44:23;12.50;99.90
7958;DHT22;4024;52.172;5.378;2023-10-31T06:46:49;12.50;99.90
7958;DHT22;4024;52.172;5.378;2023-10-31T06:49:15;12.50;99.90
7958;DHT22;4024;52.172;5.378;2023-10-31T06:51:41;12.50;99.90
7958;DHT22;4024;52.172;5.378;2023-10-31T06:54:06;12.50;99.90
7958;DHT22;4024;52.172;5.378;2023-10-31T06:56:32;12.40;99.90
7958;DHT22;4024;52.172;5.378;2023-10-31T06:58:58;12.50;99.90
7958;DHT22;4024;52.172;5.378;2023-10-31T07:01:24;12.40;99.90
7958;DHT22;4024;52.172;5.378;2023-10-31T07:03:50;12.40;99.90
7958;DHT22;4024;52.172;5.378;2023-10-31T07:06:15;12.40;99.90
7958;DHT22;4024;52.172;5.378;2023-10-31T07:08:41;12.40;99.90
7958;DHT22;4024;52.172;5.378;2023-10-31T07:11:06;12.30;99.90
7958;DHT22;4024;52.172;5.378;2023-10-31T07:13:32;12.30;99.90
7958;DHT22;4024;52.172;5.378;2023-10-31T07:15:57;12.30;99.90
7958;DHT22;4024;52.172;5.378;2023-10-31T07:18:23;12.30;99.90
7958;DHT22;4024;52.172;5.378;2023-10-31T07:20:49;12.30;99.90
7958;DHT22;4024;52.172;5.378;2023-10-31T07:23:14;12.30;99.90
7958;DHT22;4024;52.172;5.378;2023-10-31T07:25:41;12.30;99.90
7958;DHT22;4024;52.172;5.378;2023-10-31T07:28:07;12.30;99.90
7958;DHT22;4024;52.172;5.378;2023-10-31T07:30:32;12.30;99.90
7958;DHT22;4024;52.172;5.378;2023-10-31T07:32:58;12.50;99.90
7958;DHT22;4024;52.172;5.378;2023-10-31T07:35:23;12.40;99.90
7958;DHT22;4024;52.172;5.378;2023-10-31T07:37:49;12.40;99.90
7958;DHT22;4024;52.172;5.378;2023-10-31T07:40:15;12.40;99.90
7958;DHT22;4024;52.172;5.378;2023-10-31T07:42:40;12.40;99.90
7958;DHT22;4024;52.172;5.378;2023-10-31T07:45:06;12.50;99.90
7958;DHT22;4024;52.172;5.378;2023-10-31T07:47:32;12.50;99.90
7958;DHT22;4024;52.172;5.378;2023-10-31T07:49:58;12.50;99.90
7958;DHT22;4024;52.172;5.378;2023-10-31T07:52:23;12.50;99.90
7958;DHT22;4024;52.172;5.378;2023-10-31T07:54:49;12.60;99.90
7958;DHT22;4024;52.172;5.378;2023-10-31T07:57:14;12.60;99.90
7958;DHT22;4024;52.172;5.378;2023-10-31T07:59:40;12.60;99.90
7958;DHT22;4024;52.172;5.378;2023-10-31T08:02:06;12.60;99.90
7958;DHT22;4024;52.172;5.378;2023-10-31T08:04:32;12.60;99.90
7958;DHT22;4024;52.172;5.378;2023-10-31T08:06:57;12.60;99.90
7958;DHT22;4024;52.172;5.378;2023-10-31T08:09:23;12.70;99.90
7958;DHT22;4024;52.172;5.378;2023-10-31T08:11:48;12.70;99.90
7958;DHT22;4024;52.172;5.378;2023-10-31T08:14:14;12.70;99.90
7958;DHT22;4024;52.172;5.378;2023-10-31T08:16:41;12.80;99.90
7958;DHT22;4024;52.172;5.378;2023-10-31T08:19:07;12.80;99.90
7958;DHT22;4024;52.172;5.378;2023-10-31T08:21:33;12.80;99.90
7958;DHT22;4024;52.172;5.378;2023-10-31T08:24:02;13.00;99.90
7958;DHT22;4024;52.172;5.378;2023-10-31T08:26:29;12.90;99.90
7958;DHT22;4024;52.172;5.378;2023-10-31T08:28:55;13.00;99.90
7958;DHT22;4024;52.172;5.378;2023-10-31T08:31:21;13.00;99.90
7958;DHT22;4024;52.172;5.378;2023-10-31T08:33:46;13.00;99.90
7958;DHT22;4024;52.172;5.378;2023-10-31T08:36:13;13.00;99.90
7958;DHT22;4024;52.172;5.378;2023-10-31T08:38:38;13.00;99.90
7958;DHT22;4024;52.172;5.378;2023-10-31T08:41:05;13.00;99.90
7958;DHT22;4024;52.172;5.378;2023-10-31T08:43:30;13.00;99.90
7958;DHT22;4024;52.172;5.378;2023-10-31T08:45:56;13.00;99.90
7958;DHT22;4024;52.172;5.378;2023-10-31T08:48:21;13.00;99.90
7958;DHT22;4024;52.172;5.378;2023-10-31T08:50:47;13.00;99.90
7958;DHT22;4024;52.172;5.378;2023-10-31T08:53:13;13.00;99.90
7958;DHT22;4024;52.172;5.378;2023-10-31T08:55:38;13.00;99.90
7958;DHT22;4024;52.172;5.378;2023-10-31T08:58:04;13.00;99.90
7958;DHT22;4024;52.172;5.378;2023-10-31T09:00:30;13.00;99.90
7958;DHT22;4024;52.172;5.378;2023-10-31T09:02:55;13.00;99.90
7958;DHT22;4024;52.172;5.378;2023-10-31T09:05:21;13.00;99.90
7958;DHT22;4024;52.172;5.378;2023-10-31T09:07:46;13.00;99.90
7958;DHT22;4024;52.172;5.378;2023-10-31T09:10:12;13.10;99.90
7958;DHT22;4024;52.172;5.378;2023-10-31T09:12:38;13.10;99.90
7958;DHT22;4024;52.172;5.378;2023-10-31T09:15:04;13.10;99.90
7958;DHT22;4024;52.172;5.378;2023-10-31T09:17:30;13.10;99.90
7958;DHT22;4024;52.172;5.378;2023-10-31T09:19:55;13.10;99.90
7958;DHT22;4024;52.172;5.378;2023-10-31T09:22:21;13.20;99.90
7958;DHT22;4024;52.172;5.378;2023-10-31T09:24:47;13.20;99.90
7958;DHT22;4024;52.172;5.378;2023-10-31T09:27:12;13.20;99.90
7958;DHT22;4024;52.172;5.378;2023-10-31T09:29:38;13.20;99.90
7958;DHT22;4024;52.172;5.378;2023-10-31T09:32:04;13.30;99.90
7958;DHT22;4024;52.172;5.378;2023-10-31T09:34:31;13.30;99.90
7958;DHT22;4024;52.172;5.378;2023-10-31T09:36:58;13.30;99.90
7958;DHT22;4024;52.172;5.378;2023-10-31T09:39:23;13.30;99.90
7958;DHT22;4024;52.172;5.378;2023-10-31T09:41:49;13.40;99.90
7958;DHT22;4024;52.172;5.378;2023-10-31T09:44:15;13.40;99.90
7958;DHT22;4024;52.172;5.378;2023-10-31T09:46:41;13.50;99.90
7958;DHT22;4024;52.172;5.378;2023-10-31T09:49:07;13.60;99.90
7958;DHT22;4024;52.172;5.378;2023-10-31T09:51:35;13.60;99.90
7958;DHT22;4024;52.172;5.378;2023-10-31T09:54:02;13.70;99.90
7958;DHT22;4024;52.172;5.378;2023-10-31T09:56:29;13.70;99.90
7958;DHT22;4024;52.172;5.378;2023-10-31T09:59:01;13.70;99.90
7958;DHT22;4024;52.172;5.378;2023-10-31T10:01:28;13.80;99.90
7958;DHT22;4024;52.172;5.378;2023-10-31T10:03:54;13.80;99.90
7958;DHT22;4024;52.172;5.378;2023-10-31T10:06:21;13.90;99.90
7958;DHT22;4024;52.172;5.378;2023-10-31T10:08:49;14.00;99.90
7958;DHT22;4024;52.172;5.378;2023-10-31T10:11:14;14.00;99.90
7958;DHT22;4024;52.172;5.378;2023-10-31T10:13:40;14.00;99.90
7958;DHT22;4024;52.172;5.378;2023-10-31T10:16:06;14.10;99.90
7958;DHT22;4024;52.172;5.378;2023-10-31T10:18:33;14.20;99.90
7958;DHT22;4024;52.172;5.378;2023-10-31T10:21:01;14.30;99.90
7958;DHT22;4024;52.172;5.378;2023-10-31T10:23:28;14.30;99.90
7958;DHT22;4024;52.172;5.378;2023-10-31T10:25:55;14.40;99.90
7958;DHT22;4024;52.172;5.378;2023-10-31T10:28:21;14.40;99.90
7958;DHT22;4024;52.172;5.378;2023-10-31T10:30:48;14.50;99.90
7958;DHT22;4024;52.172;5.378;2023-10-31T10:33:14;14.50;99.90
7958;DHT22;4024;52.172;5.378;2023-10-31T10:35:40;14.60;99.90
7958;DHT22;4024;52.172;5.378;2023-10-31T10:38:16;14.60;99.90
7958;DHT22;4024;52.172;5.378;2023-10-31T10:40:44;14.60;99.90
7958;DHT22;4024;52.172;5.378;2023-10-31T10:43:20;14.60;99.90
7958;DHT22;4024;52.172;5.378;2023-10-31T10:45:46;14.70;99.90
7958;DHT22;4024;52.172;5.378;2023-10-31T10:48:15;14.70;99.90
7958;DHT22;4024;52.172;5.378;2023-10-31T10:50:43;14.70;99.90
7958;DHT22;4024;52.172;5.378;2023-10-31T10:53:25;14.70;99.90
7958;DHT22;4024;52.172;5.378;2023-10-31T10:55:57;14.70;99.90
7958;DHT22;4024;52.172;5.378;2023-10-31T11:00:57;14.70;99.90
7958;DHT22;4024;52.172;5.378;2023-10-31T11:03:24;14.70;99.90
7958;DHT22;4024;52.172;5.378;2023-10-31T11:05:51;14.70;99.90
7958;DHT22;4024;52.172;5.378;2023-10-31T11:08:20;14.70;99.90
7958;DHT22;4024;52.172;5.378;2023-10-31T11:10:46;14.80;99.90
7958;DHT22;4024;52.172;5.378;2023-10-31T11:13:12;14.90;99.90
7958;DHT22;4024;52.172;5.378;2023-10-31T11:15:39;14.90;99.90
7958;DHT22;4024;52.172;5.378;2023-10-31T11:18:06;14.90;99.90
7958;DHT22;4024;52.172;5.378;2023-10-31T11:20:32;15.00;99.90
7958;DHT22;4024;52.172;5.378;2023-10-31T11:22:58;15.00;99.90
7958;DHT22;4024;52.172;5.378;2023-10-31T11:25:24;15.10;99.90
7958;DHT22;4024;52.172;5.378;2023-10-31T11:27:53;15.20;99.90
7958;DHT22;4024;52.172;5.378;2023-10-31T11:32:54;15.30;99.90
7958;DHT22;4024;52.172;5.378;2023-10-31T11:35:21;15.40;99.90
7958;DHT22;4024;52.172;5.378;2023-10-31T11:37:49;15.50;99.90
7958;DHT22;4024;52.172;5.378;2023-10-31T11:40:19;15.50;99.90
7958;DHT22;4024;52.172;5.378;2023-10-31T11:42:53;15.60;99.90
7958;DHT22;4024;52.172;5.378;2023-10-31T11:45:28;15.60;99.90
7958;DHT22;4024;52.172;5.378;2023-10-31T11:47:55;15.60;99.90
7958;DHT22;4024;52.172;5.378;2023-10-31T11:50:21;15.60;99.90
7958;DHT22;4024;52.172;5.378;2023-10-31T11:52:59;15.60;99.90
7958;DHT22;4024;52.172;5.378;2023-10-31T11:55:24;15.60;99.90
7958;DHT22;4024;52.172;5.378;2023-10-31T11:57:50;15.60;99.90
7958;DHT22;4024;52.172;5.378;2023-10-31T12:00:23;15.60;99.90
7958;DHT22;4024;52.172;5.378;2023-10-31T12:03:02;15.60;99.90
7958;DHT22;4024;52.172;5.378;2023-10-31T12:05:28;15.70;99.90
7958;DHT22;4024;52.172;5.378;2023-10-31T12:07:55;15.70;99.90
7958;DHT22;4024;52.172;5.378;2023-10-31T12:10:25;15.70;99.90
7958;DHT22;4024;52.172;5.378;2023-10-31T12:12:52;15.70;99.90
7958;DHT22;4024;52.172;5.378;2023-10-31T12:15:18;15.70;99.90
7958;DHT22;4024;52.172;5.378;2023-10-31T12:17:44;15.70;99.90
7958;DHT22;4024;52.172;5.378;2023-10-31T12:20:10;15.60;99.90
7958;DHT22;4024;52.172;5.378;2023-10-31T12:22:36;15.60;99.90
7958;DHT22;4024;52.172;5.378;2023-10-31T12:25:06;15.60;99.90
7958;DHT22;4024;52.172;5.378;2023-10-31T12:27:49;15.60;99.90
7958;DHT22;4024;52.172;5.378;2023-10-31T12:30:19;15.60;99.90
7958;DHT22;4024;52.172;5.378;2023-10-31T12:32:47;15.60;99.90
7958;DHT22;4024;52.172;5.378;2023-10-31T12:35:21;15.60;99.90
7958;DHT22;4024;52.172;5.378;2023-10-31T12:37:48;15.60;99.90
7958;DHT22;4024;52.172;5.378;2023-10-31T12:40:19;15.60;99.90
7958;DHT22;4024;52.172;5.378;2023-10-31T12:42:46;15.60;99.90
7958;DHT22;4024;52.172;5.378;2023-10-31T12:45:12;15.70;99.90
7958;DHT22;4024;52.172;5.378;2023-10-31T12:47:38;15.70;99.90
7958;DHT22;4024;52.172;5.378;2023-10-31T12:50:15;15.60;99.90
7958;DHT22;4024;52.172;5.378;2023-10-31T12:53:08;15.60;99.90
7958;DHT22;4024;52.172;5.378;2023-10-31T12:55:41;15.60;99.90
7958;DHT22;4024;52.172;5.378;2023-10-31T12:58:07;15.70;99.90
7958;DHT22;4024;52.172;5.378;2023-10-31T13:00:36;15.60;99.90
7958;DHT22;4024;52.172;5.378;2023-10-31T13:03:06;15.60;99.90
7958;DHT22;4024;52.172;5.378;2023-10-31T13:05:32;15.60;99.90
7958;DHT22;4024;52.172;5.378;2023-10-31T13:08:01;15.50;99.90
7958;DHT22;4024;52.172;5.378;2023-10-31T13:10:30;15.60;99.90
7958;DHT22;4024;52.172;5.378;2023-10-31T13:12:58;15.50;99.90
7958;DHT22;4024;52.172;5.378;2023-10-31T13:15:24;15.50;99.90
7958;DHT22;4024;52.172;5.378;2023-10-31T13:17:50;15.50;99.90
7958;DHT22;4024;52.172;5.378;2023-10-31T13:20:18;15.50;99.90
7958;DHT22;4024;52.172;5.378;2023-10-31T13:22:45;15.50;99.90
7958;DHT22;4024;52.172;5.378;2023-10-31T13:25:12;15.40;99.90
7958;DHT22;4024;52.172;5.378;2023-10-31T13:27:39;15.40;99.90
7958;DHT22;4024;52.172;5.378;2023-10-31T13:30:09;15.40;99.90
7958;DHT22;4024;52.172;5.378;2023-10-31T13:32:36;15.30;99.90
7958;DHT22;4024;52.172;5.378;2023-10-31T13:35:02;15.30;99.90
7958;DHT22;4024;52.172;5.378;2023-10-31T13:37:28;15.30;99.90
7958;DHT22;4024;52.172;5.378;2023-10-31T13:39:54;15.30;99.90
7958;DHT22;4024;52.172;5.378;2023-10-31T13:42:19;15.30;99.90
7958;DHT22;4024;52.172;5.378;2023-10-31T13:44:45;15.30;99.90
7958;DHT22;4024;52.172;5.378;2023-10-31T13:47:11;15.30;99.90
7958;DHT22;4024;52.172;5.378;2023-10-31T13:49:37;15.50;99.90
7958;DHT22;4024;52.172;5.378;2023-10-31T13:52:03;15.30;99.90
7958;DHT22;4024;52.172;5.378;2023-10-31T13:54:29;15.30;99.90
7958;DHT22;4024;52.172;5.378;2023-10-31T13:56:55;15.30;99.90
7958;DHT22;4024;52.172;5.378;2023-10-31T13:59:20;15.30;99.90
7958;DHT22;4024;52.172;5.378;2023-10-31T14:01:46;15.30;99.90
7958;DHT22;4024;52.172;5.378;2023-10-31T14:04:12;15.30;99.90
7958;DHT22;4024;52.172;5.378;2023-10-31T14:06:42;15.30;99.90
7958;DHT22;4024;52.172;5.378;2023-10-31T14:09:09;15.30;99.90
7958;DHT22;4024;52.172;5.378;2023-10-31T14:11:36;15.30;99.90
7958;DHT22;4024;52.172;5.378;2023-10-31T14:14:03;15.30;99.90
7958;DHT22;4024;52.172;5.378;2023-10-31T14:16:33;15.20;99.90
7958;DHT22;4024;52.172;5.378;2023-10-31T14:18:59;15.20;99.90
7958;DHT22;4024;52.172;5.378;2023-10-31T14:21:24;15.20;99.90
7958;DHT22;4024;52.172;5.378;2023-10-31T14:23:51;15.20;99.90
7958;DHT22;4024;52.172;5.378;2023-10-31T14:26:22;15.20;99.90
7958;DHT22;4024;52.172;5.378;2023-10-31T14:28:49;15.10;99.90
7958;DHT22;4024;52.172;5.378;2023-10-31T14:31:15;15.10;99.90
7958;DHT22;4024;52.172;5.378;2023-10-31T14:33:41;15.10;99.90
7958;DHT22;4024;52.172;5.378;2023-10-31T14:36:07;15.10;99.90
7958;DHT22;4024;52.172;5.378;2023-10-31T14:38:35;15.10;99.90
7958;DHT22;4024;52.172;5.378;2023-10-31T14:41:01;15.00;99.90
7958;DHT22;4024;52.172;5.378;2023-10-31T14:43:27;15.10;99.90
7958;DHT22;4024;52.172;5.378;2023-10-31T14:45:53;15.10;99.90
7958;DHT22;4024;52.172;5.378;2023-10-31T14:48:20;15.00;99.90
7958;DHT22;4024;52.172;5.378;2023-10-31T14:50:46;15.00;99.90
7958;DHT22;4024;52.172;5.378;2023-10-31T14:53:14;15.00;99.90
7958;DHT22;4024;52.172;5.378;2023-10-31T14:55:39;15.00;99.90
7958;DHT22;4024;52.172;5.378;2023-10-31T14:58:05;15.00;99.90
7958;DHT22;4024;52.172;5.378;2023-10-31T15:00:33;15.00;99.90
7958;DHT22;4024;52.172;5.378;2023-10-31T15:02:59;15.00;99.90
7958;DHT22;4024;52.172;5.378;2023-10-31T15:05:24;14.90;99.90
7958;DHT22;4024;52.172;5.378;2023-10-31T15:07:50;14.90;99.90
7958;DHT22;4024;52.172;5.378;2023-10-31T15:10:19;14.90;99.90
7958;DHT22;4024;52.172;5.378;2023-10-31T15:12:48;14.80;99.90
7958;DHT22;4024;52.172;5.378;2023-10-31T15:15:15;14.80;99.90
7958;DHT22;4024;52.172;5.378;2023-10-31T15:17:40;14.80;99.90
7958;DHT22;4024;52.172;5.378;2023-10-31T15:20:07;14.80;99.90
7958;DHT22;4024;52.172;5.378;2023-10-31T15:22:36;14.70;99.90
7958;DHT22;4024;52.172;5.378;2023-10-31T15:25:02;14.70;99.90
7958;DHT22;4024;52.172;5.378;2023-10-31T15:27:27;14.70;99.90
7958;DHT22;4024;52.172;5.378;2023-10-31T15:29:53;14.60;99.90
7958;DHT22;4024;52.172;5.378;2023-10-31T15:32:19;14.60;99.90
7958;DHT22;4024;52.172;5.378;2023-10-31T15:34:44;14.50;99.90
7958;DHT22;4024;52.172;5.378;2023-10-31T15:37:10;14.50;99.90
7958;DHT22;4024;52.172;5.378;2023-10-31T15:39:37;14.50;99.90
7958;DHT22;4024;52.172;5.378;2023-10-31T15:42:04;14.50;99.90
7958;DHT22;4024;52.172;5.378;2023-10-31T15:44:31;14.50;99.90
7958;DHT22;4024;52.172;5.378;2023-10-31T15:46:57;14.50;99.90
7958;DHT22;4024;52.172;5.378;2023-10-31T15:49:23;14.40;99.90
7958;DHT22;4024;52.172;5.378;2023-10-31T15:51:48;14.40;99.90
7958;DHT22;4024;52.172;5.378;2023-10-31T15:54:14;14.30;99.90
7958;DHT22;4024;52.172;5.378;2023-10-31T15:56:40;14.40;99.90
7958;DHT22;4024;52.172;5.378;2023-10-31T15:59:05;14.30;99.90
7958;DHT22;4024;52.172;5.378;2023-10-31T16:01:31;14.30;99.90